Time;durP1;ratioP1;P1;durP2;ratioP2;P2;SDS_P1;SDS_P2;PMS_P1;PMS_P2;Temp;Humidity;BMP_temperature;BMP_pressure;BME280_temperature;BME280_humidity;BME280_pressure;Samples;Min_cycle;Max_cycle;Signal;HPM_P1;HPM_P2
2023/10/21 00:01:09;;;;;;;3.57;1.30;;;13.10;34.70;;;;;;5008863;28;20483;-70
2023/10/21 00:03:35;;;;;;;4.57;2.17;;;13.20;34.40;;;;;;5010483;28;21202;-70
2023/10/21 00:06:03;;;;;;;6.63;1.00;;;13.20;34.30;;;;;;5013255;28;20561;-71
2023/10/21 00:08:30;;;;;;;3.40;1.03;;;13.20;34.10;;;;;;5011893;28;20451;-70
2023/10/21 00:11:05;;;;;;;3.83;1.43;;;13.20;33.90;;;;;;5012850;28;20831;-70
2023/10/21 00:13:32;;;;;;;5.97;1.77;;;13.20;34.00;;;;;;5008428;28;20755;-70
2023/10/21 00:15:59;;;;;;;3.97;1.30;;;13.20;34.00;;;;;;5014612;28;20843;-70
2023/10/21 00:18:26;;;;;;;4.50;1.40;;;13.20;33.90;;;;;;5012278;28;20475;-70
2023/10/21 00:20:54;;;;;;;4.30;1.60;;;13.30;33.90;;;;;;5013290;28;20482;-70
2023/10/21 00:23:21;;;;;;;3.83;1.53;;;13.30;34.00;;;;;;5012812;28;21025;-70
2023/10/21 00:25:48;;;;;;;3.87;1.80;;;13.30;33.80;;;;;;5012097;28;20479;-70
2023/10/21 00:28:16;;;;;;;3.93;1.50;;;13.30;33.70;;;;;;5011924;28;20447;-70
2023/10/21 00:30:45;;;;;;;3.70;1.40;;;13.30;33.20;;;;;;5007677;28;20471;-70
2023/10/21 00:33:14;;;;;;;4.00;1.50;;;13.30;33.30;;;;;;5015624;28;20464;-69
2023/10/21 00:35:40;;;;;;;4.50;1.60;;;13.30;33.50;;;;;;5018509;28;20553;-70
2023/10/21 00:38:07;;;;;;;3.73;1.50;;;13.20;33.50;;;;;;5018017;28;20486;-69
2023/10/21 00:40:34;;;;;;;4.53;1.80;;;13.20;33.60;;;;;;5016665;28;21022;-71
2023/10/21 00:43:00;;;;;;;4.13;1.93;;;13.30;33.40;;;;;;5007893;28;20463;-70
2023/10/21 00:45:28;;;;;;;3.80;1.40;;;13.30;33.40;;;;;;5014887;28;20475;-70
2023/10/21 00:47:55;;;;;;;4.07;1.70;;;13.20;33.30;;;;;;5016860;28;20950;-70
2023/10/21 00:50:22;;;;;;;3.90;1.70;;;13.20;33.40;;;;;;5012974;28;20471;-70
2023/10/21 00:52:49;;;;;;;7.20;1.60;;;13.20;33.50;;;;;;5014444;28;20452;-70
2023/10/21 00:55:16;;;;;;;4.33;1.80;;;13.20;34.10;;;;;;5018381;28;20554;-70
2023/10/21 00:57:43;;;;;;;4.40;1.70;;;13.20;33.50;;;;;;5017328;28;20943;-69
2023/10/21 01:00:11;;;;;;;4.03;1.70;;;13.20;33.40;;;;;;5022780;28;20463;-70
2023/10/21 01:02:41;;;;;;;5.87;1.77;;;13.20;33.40;;;;;;5005135;28;20468;-69
2023/10/21 01:05:08;;;;;;;5.07;1.90;;;13.20;33.40;;;;;;5018391;28;20482;-70
2023/10/21 01:07:35;;;;;;;4.23;2.07;;;13.20;33.30;;;;;;5012487;28;20996;-71
2023/10/21 01:10:03;;;;;;;3.77;1.40;;;13.20;33.10;;;;;;5012506;28;20456;-70
2023/10/21 01:12:30;;;;;;;4.30;2.10;;;13.30;33.10;;;;;;5011320;28;20464;-70
2023/10/21 01:14:57;;;;;;;3.90;1.20;;;13.30;33.00;;;;;;5014274;28;20538;-71
2023/10/21 01:17:24;;;;;;;4.90;1.47;;;13.30;32.80;;;;;;5011081;28;20498;-70
2023/10/21 01:19:52;;;;;;;3.40;1.23;;;13.30;32.60;;;;;;5012683;28;20463;-70
2023/10/21 01:22:18;;;;;;;4.43;1.67;;;13.40;32.60;;;;;;5010661;28;20476;-69
2023/10/21 01:24:47;;;;;;;4.73;1.37;;;13.30;32.70;;;;;;5017669;28;20491;-70
2023/10/21 01:27:13;;;;;;;3.40;1.20;;;13.20;32.80;;;;;;5017293;28;20823;-70
2023/10/21 01:29:40;;;;;;;3.90;1.20;;;13.20;32.50;;;;;;5013004;28;20862;-71
2023/10/21 01:32:07;;;;;;;6.93;1.37;;;13.30;32.60;;;;;;5013057;28;20483;-70
2023/10/21 01:34:34;;;;;;;3.60;1.30;;;13.20;32.50;;;;;;5010360;28;20486;-69
2023/10/21 01:37:01;;;;;;;4.03;1.10;;;13.30;32.40;;;;;;5013784;28;20464;-69
2023/10/21 01:39:27;;;;;;;3.53;1.00;;;13.30;32.10;;;;;;5012793;28;20467;-68
2023/10/21 01:41:55;;;;;;;3.33;0.97;;;13.30;32.10;;;;;;5011668;28;20455;-69
2023/10/21 01:44:22;;;;;;;2.97;0.70;;;13.30;31.50;;;;;;5013924;28;20511;-69
2023/10/21 01:46:49;;;;;;;3.20;0.60;;;13.30;31.30;;;;;;5011202;28;20460;-69
2023/10/21 01:49:16;;;;;;;5.47;0.90;;;13.40;31.20;;;;;;5012986;28;20977;-69
2023/10/21 01:51:43;;;;;;;3.07;0.60;;;13.40;30.90;;;;;;5020367;28;20859;-69
2023/10/21 01:54:09;;;;;;;2.90;0.60;;;13.40;30.50;;;;;;5016431;28;20490;-70
2023/10/21 01:56:36;;;;;;;5.13;0.80;;;13.40;30.20;;;;;;5013342;28;20452;-70
2023/10/21 01:59:04;;;;;;;3.50;0.90;;;13.40;30.10;;;;;;5016961;28;20833;-70
2023/10/21 02:01:31;;;;;;;3.10;0.70;;;13.50;29.90;;;;;;5010891;28;21011;-71
2023/10/21 02:03:57;;;;;;;3.10;0.70;;;13.50;29.80;;;;;;5015063;28;20471;-70
2023/10/21 02:06:24;;;;;;;3.40;0.80;;;13.50;29.90;;;;;;5014391;28;20543;-70
2023/10/21 02:08:51;;;;;;;3.20;0.60;;;13.40;29.90;;;;;;5013153;28;20469;-70
2023/10/21 02:11:21;;;;;;;4.17;0.80;;;13.50;29.80;;;;;;5010341;28;20467;-70
2023/10/21 02:13:48;;;;;;;3.10;0.70;;;13.40;29.90;;;;;;5012978;28;21220;-69
2023/10/21 02:16:16;;;;;;;3.73;0.77;;;13.40;29.80;;;;;;5015435;28;20466;-69
2023/10/21 02:18:42;;;;;;;3.30;0.97;;;13.50;29.90;;;;;;5017637;28;20488;-69
2023/10/21 02:21:09;;;;;;;3.80;0.80;;;13.40;29.90;;;;;;5012138;28;20493;-69
2023/10/21 02:23:36;;;;;;;3.00;0.60;;;13.40;30.20;;;;;;5005894;28;20902;-69
2023/10/21 02:26:04;;;;;;;3.50;0.77;;;13.40;30.00;;;;;;5010868;28;20836;-69
2023/10/21 02:28:31;;;;;;;3.20;0.63;;;13.30;30.20;;;;;;5009363;28;20452;-69
2023/10/21 02:30:58;;;;;;;3.60;1.10;;;13.40;30.30;;;;;;5019037;28;20475;-70
2023/10/21 02:33:26;;;;;;;3.10;0.77;;;13.30;30.30;;;;;;5015779;28;20478;-69
2023/10/21 02:35:53;;;;;;;3.17;0.80;;;13.30;30.40;;;;;;5009937;28;20480;-70
2023/10/21 02:38:20;;;;;;;3.13;0.80;;;13.30;30.60;;;;;;5010066;28;21823;-69
2023/10/21 02:40:47;;;;;;;4.03;0.80;;;13.30;30.50;;;;;;5007549;28;20464;-70
2023/10/21 02:43:14;;;;;;;3.23;0.80;;;13.20;30.50;;;;;;5015824;28;20537;-69
2023/10/21 02:45:40;;;;;;;3.00;0.70;;;13.20;30.60;;;;;;5007023;28;20479;-70
2023/10/21 02:48:07;;;;;;;5.10;1.07;;;13.10;30.70;;;;;;5009824;28;20453;-70
2023/10/21 02:50:35;;;;;;;3.67;1.00;;;13.10;30.80;;;;;;5010301;28;20460;-69
2023/10/21 02:53:02;;;;;;;3.50;0.90;;;13.10;30.80;;;;;;5011151;28;20459;-70
2023/10/21 02:55:29;;;;;;;3.43;0.90;;;13.10;30.80;;;;;;5010701;28;20468;-69
2023/10/21 02:57:56;;;;;;;3.50;0.60;;;13.20;30.80;;;;;;5013003;28;20483;-71
2023/10/21 03:00:23;;;;;;;2.90;0.57;;;13.20;30.80;;;;;;5010601;28;20459;-70
2023/10/21 03:02:50;;;;;;;3.10;0.67;;;13.20;30.70;;;;;;5005048;28;20471;-70
2023/10/21 03:05:17;;;;;;;3.50;0.70;;;13.20;30.70;;;;;;5012089;28;20478;-69
2023/10/21 03:07:45;;;;;;;3.60;0.97;;;13.20;30.60;;;;;;5010299;28;20455;-70
2023/10/21 03:10:12;;;;;;;3.20;0.80;;;13.30;31.30;;;;;;5010184;28;20468;-70
2023/10/21 03:12:39;;;;;;;3.27;1.23;;;13.20;30.60;;;;;;5011026;28;20456;-70
2023/10/21 03:15:07;;;;;;;3.80;1.20;;;13.30;30.60;;;;;;5011732;28;20486;-70
2023/10/21 03:17:34;;;;;;;4.60;1.10;;;13.30;30.60;;;;;;5009499;28;20460;-70
2023/10/21 03:20:00;;;;;;;3.63;1.30;;;13.20;30.50;;;;;;5009982;28;20462;-70
2023/10/21 03:22:27;;;;;;;4.10;1.10;;;13.20;30.60;;;;;;5010967;28;20991;-70
2023/10/21 03:24:55;;;;;;;4.30;1.13;;;13.20;30.70;;;;;;5010526;28;20476;-70
2023/10/21 03:27:22;;;;;;;3.00;0.70;;;13.20;30.70;;;;;;5009173;28;20460;-70
2023/10/21 03:29:49;;;;;;;3.20;0.83;;;13.20;30.90;;;;;;5013571;28;20463;-70
2023/10/21 03:32:16;;;;;;;3.30;0.70;;;13.30;31.10;;;;;;5011067;28;20515;-69
2023/10/21 03:34:42;;;;;;;3.00;0.70;;;13.30;31.10;;;;;;5013012;28;20499;-70
2023/10/21 03:37:09;;;;;;;3.10;0.80;;;13.40;31.20;;;;;;5009153;28;20936;-69
2023/10/21 03:39:36;;;;;;;3.50;0.70;;;13.30;31.70;;;;;;5011049;28;20504;-70
2023/10/21 03:42:04;;;;;;;3.53;1.10;;;13.40;31.00;;;;;;5011945;28;20465;-71
2023/10/21 03:44:31;;;;;;;4.07;1.17;;;13.40;31.00;;;;;;5002761;28;21027;-70
2023/10/21 03:46:58;;;;;;;3.40;0.70;;;13.40;31.10;;;;;;5008016;28;20543;-69
2023/10/21 03:49:24;;;;;;;3.83;0.63;;;13.40;31.10;;;;;;5012197;28;20470;-70
2023/10/21 03:51:51;;;;;;;4.30;1.10;;;13.40;31.10;;;;;;5009232;28;20831;-70
2023/10/21 03:54:18;;;;;;;3.20;0.80;;;13.40;31.10;;;;;;5007077;28;20480;-70
2023/10/21 03:56:44;;;;;;;3.30;0.80;;;13.40;31.20;;;;;;5010806;28;20475;-70
2023/10/21 03:59:12;;;;;;;3.10;0.80;;;13.40;31.30;;;;;;5010950;28;20488;-69
2023/10/21 04:01:39;;;;;;;3.60;0.87;;;13.30;31.50;;;;;;5006738;28;20490;-69
2023/10/21 04:04:07;;;;;;;3.40;0.93;;;13.30;31.70;;;;;;5010488;28;20855;-70
2023/10/21 04:06:34;;;;;;;3.80;0.83;;;13.20;31.80;;;;;;5008826;28;20990;-70
2023/10/21 04:09:01;;;;;;;3.37;0.80;;;13.20;31.90;;;;;;5009025;28;20456;-70
2023/10/21 04:11:28;;;;;;;3.40;0.90;;;13.20;31.90;;;;;;5007245;28;20518;-70
2023/10/21 04:13:54;;;;;;;3.67;1.03;;;13.20;31.90;;;;;;5008600;28;20456;-70
2023/10/21 04:16:22;;;;;;;4.13;0.93;;;13.20;32.00;;;;;;5008166;28;20452;-70
2023/10/21 04:18:49;;;;;;;4.23;1.13;;;13.30;32.00;;;;;;5008693;28;20479;-69
2023/10/21 04:21:16;;;;;;;4.63;1.20;;;13.30;31.80;;;;;;5026709;22;20495;-68
2023/10/21 04:23:43;;;;;;;3.70;1.10;;;13.30;31.80;;;;;;5018269;28;20463;-68
2023/10/21 04:26:10;;;;;;;4.60;1.30;;;13.30;31.70;;;;;;5022665;28;20463;-68
2023/10/21 04:28:37;;;;;;;3.77;1.37;;;13.30;31.60;;;;;;5023198;28;20832;-68
2023/10/21 04:31:03;;;;;;;5.50;1.40;;;13.30;31.60;;;;;;5023937;28;20479;-68
2023/10/21 04:33:31;;;;;;;3.60;1.10;;;13.20;31.90;;;;;;5023093;28;20466;-68
2023/10/21 04:35:58;;;;;;;4.50;1.07;;;13.20;32.00;;;;;;5023836;28;20854;-68
2023/10/21 04:38:25;;;;;;;3.43;1.20;;;13.20;32.00;;;;;;5024013;28;20489;-68
2023/10/21 04:40:53;;;;;;;5.33;1.20;;;13.20;32.10;;;;;;5022758;28;20486;-68
2023/10/21 04:43:19;;;;;;;3.70;1.17;;;13.20;32.00;;;;;;5021717;28;20741;-68
2023/10/21 04:45:46;;;;;;;5.43;1.63;;;13.20;32.00;;;;;;5024056;28;20487;-68
2023/10/21 04:48:13;;;;;;;3.70;1.40;;;13.10;32.20;;;;;;5024985;28;23137;-68
2023/10/21 04:50:41;;;;;;;3.60;1.20;;;13.20;32.30;;;;;;5026842;28;20820;-68
2023/10/21 04:53:08;;;;;;;3.97;1.10;;;13.20;32.30;;;;;;5025525;28;21048;-68
2023/10/21 04:55:34;;;;;;;5.90;2.47;;;13.20;32.30;;;;;;5026011;28;20486;-68
2023/10/21 04:58:01;;;;;;;3.57;1.20;;;13.20;32.30;;;;;;5029019;28;20462;-68
2023/10/21 05:00:28;;;;;;;3.90;1.20;;;13.20;32.30;;;;;;5025646;28;20469;-68
2023/10/21 05:02:55;;;;;;;4.53;1.30;;;13.20;32.30;;;;;;5025061;28;20462;-68
2023/10/21 05:05:22;;;;;;;3.90;1.20;;;13.20;32.20;;;;;;5024610;28;20502;-68
2023/10/21 05:07:50;;;;;;;7.83;1.43;;;13.20;32.30;;;;;;5028691;28;20470;-68
2023/10/21 05:10:18;;;;;;;5.30;1.40;;;13.20;32.60;;;;;;5025813;28;20490;-68
2023/10/21 05:12:44;;;;;;;4.53;1.17;;;13.10;32.50;;;;;;5026757;28;20857;-68
2023/10/21 05:15:11;;;;;;;4.07;1.20;;;13.10;32.50;;;;;;5027835;28;20486;-68
2023/10/21 05:17:38;;;;;;;4.13;1.03;;;13.10;32.60;;;;;;5026925;28;20802;-68
2023/10/21 05:20:07;;;;;;;4.17;1.60;;;13.10;32.80;;;;;;5023225;28;20487;-69
2023/10/21 05:22:34;;;;;;;3.57;1.07;;;13.10;32.80;;;;;;5024980;28;20958;-69
2023/10/21 05:25:02;;;;;;;3.60;1.20;;;13.10;32.80;;;;;;5025274;28;20483;-69
2023/10/21 05:27:29;;;;;;;3.47;1.10;;;13.10;32.90;;;;;;5024355;28;20489;-70
2023/10/21 05:29:56;;;;;;;4.07;1.17;;;13.10;32.90;;;;;;5021900;28;20466;-70
2023/10/21 05:32:23;;;;;;;3.73;1.37;;;13.10;32.90;;;;;;5022120;28;20471;-70
2023/10/21 05:34:49;;;;;;;5.97;1.50;;;13.00;33.50;;;;;;5022509;28;20479;-70
2023/10/21 05:37:16;;;;;;;4.00;1.37;;;13.10;33.00;;;;;;5022080;28;20471;-70
2023/10/21 05:39:43;;;;;;;4.37;1.60;;;13.00;32.90;;;;;;5026112;28;20479;-70
2023/10/21 05:42:11;;;;;;;4.70;1.70;;;13.00;32.80;;;;;;5027229;28;20454;-70
2023/10/21 05:44:37;;;;;;;5.20;1.10;;;13.00;33.00;;;;;;5017929;28;20480;-70
2023/10/21 05:47:05;;;;;;;4.30;1.30;;;13.00;33.00;;;;;;5017624;28;21115;-70
2023/10/21 05:49:31;;;;;;;3.87;1.50;;;13.10;33.30;;;;;;5022071;28;20462;-70
2023/10/21 05:51:58;;;;;;;4.80;1.50;;;13.00;33.30;;;;;;5024052;28;20968;-70
2023/10/21 05:54:25;;;;;;;4.53;1.40;;;13.10;33.20;;;;;;5020518;28;21174;-70
2023/10/21 05:56:52;;;;;;;4.00;1.40;;;13.10;33.50;;;;;;5024734;28;20463;-70
2023/10/21 05:59:20;;;;;;;3.60;1.37;;;13.10;33.70;;;;;;5022926;28;20486;-70
2023/10/21 06:01:46;;;;;;;4.37;1.37;;;13.10;33.80;;;;;;5022019;28;20834;-70
2023/10/21 06:04:13;;;;;;;3.90;1.10;;;13.10;33.80;;;;;;5020767;28;20483;-70
2023/10/21 06:06:40;;;;;;;5.13;1.23;;;13.20;33.60;;;;;;5020368;28;20467;-70
2023/10/21 06:09:09;;;;;;;3.83;1.40;;;13.20;33.70;;;;;;5022734;28;20990;-70
2023/10/21 06:11:36;;;;;;;4.10;1.27;;;13.30;33.60;;;;;;5024195;28;20475;-70
2023/10/21 06:14:03;;;;;;;6.70;1.40;;;13.30;33.50;;;;;;5025824;28;20470;-70
2023/10/21 06:16:31;;;;;;;3.47;1.00;;;13.30;33.50;;;;;;5022075;28;21275;-70
2023/10/21 06:18:57;;;;;;;3.40;1.03;;;13.40;33.40;;;;;;5022931;28;20483;-68
2023/10/21 06:21:24;;;;;;;3.67;1.10;;;13.40;33.30;;;;;;5018767;28;20475;-68
2023/10/21 06:23:51;;;;;;;4.00;1.07;;;13.50;33.20;;;;;;5020074;28;20490;-69
2023/10/21 06:26:18;;;;;;;3.87;1.00;;;13.60;33.20;;;;;;5024186;28;23352;-68
2023/10/21 06:28:44;;;;;;;4.00;1.10;;;13.70;32.80;;;;;;5022302;28;20503;-68
2023/10/21 06:31:11;;;;;;;3.63;1.00;;;13.80;32.60;;;;;;5026996;28;20475;-68
2023/10/21 06:33:39;;;;;;;3.83;0.90;;;13.90;32.50;;;;;;5017556;28;20458;-69
2023/10/21 06:36:07;;;;;;;3.60;1.10;;;14.10;32.40;;;;;;5022256;28;20492;-69
2023/10/21 06:38:34;;;;;;;4.87;0.90;;;14.60;31.30;;;;;;5021386;28;21039;-68
2023/10/21 06:41:02;;;;;;;3.00;0.73;;;15.10;29.40;;;;;;5018331;28;20466;-69
2023/10/21 06:43:28;;;;;;;4.33;0.73;;;15.20;28.00;;;;;;5021130;28;20883;-69
2023/10/21 06:45:55;;;;;;;3.70;0.90;;;15.10;28.50;;;;;;5015587;28;20490;-69
2023/10/21 06:48:22;;;;;;;3.70;0.90;;;15.00;28.10;;;;;;5019976;28;20992;-69
2023/10/21 06:50:50;;;;;;;4.20;0.90;;;14.90;28.60;;;;;;5024113;28;20455;-70
2023/10/21 06:53:17;;;;;;;3.00;0.80;;;14.80;28.40;;;;;;5026910;28;20463;-69
2023/10/21 06:55:44;;;;;;;3.77;0.70;;;14.80;28.70;;;;;;5020975;28;20487;-69
2023/10/21 06:58:12;;;;;;;3.60;0.90;;;14.80;28.90;;;;;;5020239;28;20944;-69
2023/10/21 07:00:39;;;;;;;4.17;1.03;;;14.80;28.80;;;;;;5017102;28;20490;-69
2023/10/21 07:03:06;;;;;;;3.30;0.80;;;14.90;28.60;;;;;;5025858;28;20462;-69
2023/10/21 07:05:33;;;;;;;4.80;0.80;;;15.00;28.30;;;;;;5023619;28;20497;-69
2023/10/21 07:08:01;;;;;;;3.37;0.87;;;15.00;28.30;;;;;;5020753;28;20470;-69
2023/10/21 07:10:29;;;;;;;3.63;0.70;;;15.00;28.50;;;;;;5016061;28;20456;-70
2023/10/21 07:12:56;;;;;;;3.30;0.70;;;15.00;28.50;;;;;;5012548;28;20466;-69
2023/10/21 07:15:24;;;;;;;3.30;0.60;;;15.10;28.40;;;;;;5023578;28;21442;-70
2023/10/21 07:17:51;;;;;;;3.33;0.80;;;15.00;28.80;;;;;;5024471;28;20467;-70
2023/10/21 07:20:19;;;;;;;3.87;0.70;;;15.00;28.30;;;;;;5023692;28;21013;-70
2023/10/21 07:22:46;;;;;;;3.47;0.73;;;15.00;28.20;;;;;;5022719;28;20475;-69
2023/10/21 07:25:15;;;;;;;3.73;0.67;;;15.00;28.50;;;;;;5020310;28;20478;-69
2023/10/21 07:27:43;;;;;;;3.23;0.60;;;15.10;28.30;;;;;;5018469;28;20469;-70
2023/10/21 07:30:10;;;;;;;4.73;1.07;;;15.10;28.30;;;;;;5026602;28;20463;-66
2023/10/21 07:32:37;;;;;;;4.27;0.70;;;15.10;28.30;;;;;;5021555;28;20478;-67
2023/10/21 07:35:04;;;;;;;3.00;0.60;;;15.20;28.40;;;;;;5022697;28;20487;-68
2023/10/21 07:37:31;;;;;;;3.67;0.80;;;15.20;28.50;;;;;;5018719;28;22095;-68
2023/10/21 07:39:58;;;;;;;3.10;0.80;;;15.20;28.50;;;;;;5020909;28;20492;-68
2023/10/21 07:42:27;;;;;;;3.40;0.90;;;15.30;28.30;;;;;;5024134;28;20462;-68
2023/10/21 07:44:54;;;;;;;3.10;0.80;;;15.50;27.80;;;;;;5024441;28;20479;-68
2023/10/21 07:47:21;;;;;;;8.10;2.00;;;15.60;27.30;;;;;;5024622;28;21016;-68
2023/10/21 07:49:50;;;;;;;4.60;0.80;;;15.70;26.90;;;;;;5026281;28;20494;-68
2023/10/21 07:52:17;;;;;;;3.90;0.87;;;15.90;26.10;;;;;;5020813;28;20643;-68
2023/10/21 07:54:44;;;;;;;3.50;0.83;;;16.10;26.10;;;;;;5023208;28;20514;-68
2023/10/21 07:57:10;;;;;;;2.97;0.60;;;16.30;24.70;;;;;;5024695;28;20482;-68
2023/10/21 07:59:39;;;;;;;3.20;0.60;;;16.50;23.20;;;;;;5023133;28;20490;-68
2023/10/21 08:02:06;;;;;;;3.20;0.70;;;16.60;22.80;;;;;;5018983;28;20633;-68
2023/10/21 08:04:33;;;;;;;3.20;0.60;;;16.70;22.80;;;;;;5020257;28;20486;-68
2023/10/21 08:06:59;;;;;;;3.00;0.70;;;16.80;22.10;;;;;;5023767;28;20467;-68
2023/10/21 08:09:26;;;;;;;3.20;0.50;;;17.00;21.60;;;;;;5023908;28;20455;-68
2023/10/21 08:11:53;;;;;;;3.10;0.67;;;17.00;20.50;;;;;;5024763;28;20481;-68
2023/10/21 08:14:20;;;;;;;3.20;0.50;;;17.20;20.00;;;;;;5018491;28;20504;-68
2023/10/21 08:16:48;;;;;;;2.97;0.50;;;17.30;20.00;;;;;;5023084;28;20470;-67
2023/10/21 08:19:14;;;;;;;2.90;0.50;;;17.80;19.40;;;;;;5024263;28;20463;-68
2023/10/21 08:21:41;;;;;;;5.17;0.40;;;18.50;17.30;;;;;;5022927;28;20950;-68
2023/10/21 08:24:08;;;;;;;3.73;0.50;;;18.70;16.50;;;;;;5027806;28;20568;-68
2023/10/21 08:26:36;;;;;;;3.13;0.53;;;19.00;15.80;;;;;;5027133;28;20978;-67
2023/10/21 08:29:03;;;;;;;3.83;0.53;;;19.00;14.90;;;;;;5029328;28;20473;-67
2023/10/21 08:31:30;;;;;;;3.23;0.73;;;18.80;14.70;;;;;;5034579;28;20559;-67
2023/10/21 08:33:58;;;;;;;3.00;0.50;;;18.60;15.30;;;;;;5036426;28;20483;-68
2023/10/21 08:36:26;;;;;;;2.90;0.60;;;18.50;15.60;;;;;;5029134;28;20460;-68
2023/10/21 08:38:53;;;;;;;3.00;0.50;;;18.70;15.30;;;;;;5027618;28;20471;-68
2023/10/21 08:41:20;;;;;;;2.80;0.50;;;18.70;15.00;;;;;;5025380;28;20513;-68
2023/10/21 08:43:49;;;;;;;3.10;0.63;;;18.60;14.90;;;;;;5025682;28;21446;-68
2023/10/21 08:46:16;;;;;;;3.37;0.70;;;18.40;15.30;;;;;;5030718;28;20469;-68
2023/10/21 08:48:45;;;;;;;3.37;0.73;;;18.20;15.80;;;;;;5026438;28;20848;-68
2023/10/21 08:51:18;;;;;;;3.10;0.70;;;18.00;16.10;;;;;;5023463;28;20466;-67
2023/10/21 08:53:47;;;;;;;3.10;0.60;;;17.80;16.30;;;;;;5022290;28;20462;-68
2023/10/21 08:56:14;;;;;;;2.90;0.40;;;17.60;16.80;;;;;;5025871;28;20999;-68
2023/10/21 08:58:42;;;;;;;3.50;0.60;;;17.50;17.20;;;;;;5026575;28;20458;-67
2023/10/21 09:01:09;;;;;;;3.40;0.70;;;17.30;17.60;;;;;;5028354;28;20564;-67
2023/10/21 09:03:36;;;;;;;3.00;0.50;;;17.20;17.90;;;;;;5027191;28;20474;-67
2023/10/21 09:06:05;;;;;;;2.70;0.30;;;17.10;18.40;;;;;;5024713;28;20467;-67
2023/10/21 09:08:34;;;;;;;2.70;0.40;;;17.10;18.60;;;;;;5027972;28;21661;-67
2023/10/21 09:11:05;;;;;;;3.00;0.60;;;17.00;18.90;;;;;;5027817;28;20828;-67
2023/10/21 09:13:33;;;;;;;4.10;0.43;;;16.90;19.00;;;;;;5026331;28;20513;-67
2023/10/21 09:16:00;;;;;;;3.47;0.50;;;16.80;19.20;;;;;;5024606;28;20487;-67
2023/10/21 09:18:27;;;;;;;3.73;0.60;;;16.70;19.30;;;;;;5024704;28;20464;-68
2023/10/21 09:20:54;;;;;;;3.10;0.53;;;16.70;19.80;;;;;;5028292;28;20482;-67
2023/10/21 09:23:20;;;;;;;2.70;0.40;;;16.60;19.80;;;;;;5027960;28;20470;-67
2023/10/21 09:25:51;;;;;;;2.90;0.60;;;16.60;20.00;;;;;;5024356;28;20480;-67
2023/10/21 09:28:21;;;;;;;3.67;0.80;;;16.60;20.10;;;;;;5025558;28;20477;-67
2023/10/21 09:30:56;;;;;;;2.90;0.50;;;16.70;20.20;;;;;;5025634;28;20467;-67
2023/10/21 09:33:23;;;;;;;3.53;0.50;;;16.70;20.00;;;;;;5025642;28;20482;-67
2023/10/21 09:36:01;;;;;;;3.60;0.57;;;16.90;20.00;;;;;;5026284;28;21162;-68
2023/10/21 09:38:28;;;;;;;2.73;0.40;;;16.90;19.90;;;;;;5026849;28;20964;-67
2023/10/21 09:40:58;;;;;;;3.40;0.70;;;16.90;19.70;;;;;;5025476;28;20487;-67
2023/10/21 09:43:27;;;;;;;3.07;0.53;;;16.90;19.60;;;;;;5027717;28;20459;-67
2023/10/21 09:45:58;;;;;;;2.80;0.50;;;16.90;19.70;;;;;;5028830;28;20482;-67
2023/10/21 09:48:27;;;;;;;3.57;0.50;;;16.80;19.80;;;;;;5024612;28;20463;-67
2023/10/21 09:50:59;;;;;;;4.37;0.67;;;16.80;19.80;;;;;;5024181;28;20927;-67
2023/10/21 09:53:39;;;;;;;3.23;0.50;;;16.80;19.90;;;;;;5028676;28;20458;-68
2023/10/21 09:56:10;;;;;;;2.80;0.40;;;16.60;20.00;;;;;;5028593;28;20494;-67
2023/10/21 09:58:39;;;;;;;3.00;0.40;;;16.70;20.20;;;;;;5030268;28;20463;-68
2023/10/21 10:01:07;;;;;;;3.30;0.50;;;16.70;20.20;;;;;;5023729;28;20482;-67
2023/10/21 10:03:36;;;;;;;3.03;0.70;;;16.70;20.00;;;;;;5024848;28;20466;-67
2023/10/21 10:06:04;;;;;;;4.33;0.70;;;16.70;20.00;;;;;;5024506;28;20529;-67
2023/10/21 10:08:33;;;;;;;3.87;0.70;;;16.70;20.20;;;;;;5029033;28;20459;-67
2023/10/21 10:11:02;;;;;;;3.53;0.80;;;16.70;20.20;;;;;;5025394;28;21173;-67
2023/10/21 10:13:34;;;;;;;4.90;0.90;;;16.70;19.80;;;;;;5024191;28;21259;-67
2023/10/21 10:16:19;;;;;;;3.73;0.70;;;16.70;20.20;;;;;;5026940;28;20479;-67
2023/10/21 10:18:49;;;;;;;6.53;0.87;;;16.60;20.60;;;;;;5025889;28;20466;-67
2023/10/21 10:21:17;;;;;;;4.10;0.97;;;16.60;20.40;;;;;;5039183;22;20501;-66
2023/10/21 10:23:49;;;;;;;2.90;0.40;;;16.70;20.30;;;;;;5046013;28;20462;-66
2023/10/21 10:26:17;;;;;;;3.10;0.50;;;16.70;19.80;;;;;;5045680;28;20875;-66
2023/10/21 10:28:46;;;;;;;3.50;0.80;;;16.70;19.70;;;;;;5045758;28;20458;-66
2023/10/21 10:31:13;;;;;;;5.90;1.20;;;16.70;19.90;;;;;;5041309;28;20477;-66
2023/10/21 10:33:51;;;;;;;4.87;1.20;;;16.80;20.00;;;;;;5047134;28;20459;-66
2023/10/21 10:36:27;;;;;;;4.10;0.97;;;16.80;20.20;;;;;;5044481;28;20489;-66
2023/10/21 10:38:54;;;;;;;3.23;0.80;;;16.80;20.20;;;;;;5049319;28;20477;-66
2023/10/21 10:41:23;;;;;;;4.03;1.00;;;16.80;20.00;;;;;;5046397;28;20510;-66
2023/10/21 10:43:54;;;;;;;4.93;1.60;;;16.80;19.90;;;;;;5043054;28;20458;-65
2023/10/21 10:46:22;;;;;;;5.47;1.00;;;16.80;20.00;;;;;;5043196;28;20519;-65
2023/10/21 10:48:50;;;;;;;4.13;0.80;;;16.70;20.10;;;;;;5044890;28;20469;-65
2023/10/21 10:51:17;;;;;;;4.47;1.53;;;16.80;20.00;;;;;;5046334;28;20446;-64
2023/10/21 10:53:52;;;;;;;2.97;0.60;;;16.70;20.30;;;;;;5039265;28;20455;-65
2023/10/21 10:56:19;;;;;;;3.00;0.70;;;16.80;20.60;;;;;;5043489;28;20829;-65
2023/10/21 10:58:46;;;;;;;3.90;1.70;;;16.80;20.30;;;;;;5045279;28;20515;-65
2023/10/21 11:01:25;;;;;;;4.07;1.10;;;16.80;20.20;;;;;;5049752;28;20470;-66
2023/10/21 11:03:56;;;;;;;3.70;0.90;;;16.80;20.40;;;;;;5044424;28;20468;-65
2023/10/21 11:06:24;;;;;;;5.40;2.10;;;16.80;20.50;;;;;;5042950;28;20454;-65
2023/10/21 11:08:52;;;;;;;4.67;1.47;;;16.90;20.70;;;;;;5044681;28;20512;-65
2023/10/21 11:11:18;;;;;;;7.10;3.20;;;17.00;20.70;;;;;;5043841;28;20470;-65
2023/10/21 11:13:46;;;;;;;3.60;1.00;;;17.10;20.50;;;;;;5043697;28;20462;-65
2023/10/21 11:16:15;;;;;;;3.97;0.83;;;17.30;20.10;;;;;;5044368;28;20472;-65
2023/10/21 11:18:43;;;;;;;4.40;2.10;;;17.30;19.50;;;;;;5044960;28;21166;-65
2023/10/21 11:21:10;;;;;;;4.40;1.30;;;17.40;19.50;;;;;;5042138;28;20481;-65
2023/10/21 11:23:37;;;;;;;5.40;2.23;;;17.40;19.00;;;;;;5042872;28;20469;-65
2023/10/21 11:26:07;;;;;;;5.00;2.13;;;17.30;19.30;;;;;;5041060;28;20463;-65
2023/10/21 11:28:36;;;;;;;4.80;1.90;;;17.30;19.50;;;;;;5042066;28;20469;-65
2023/10/21 11:31:03;;;;;;;4.93;1.60;;;17.30;19.70;;;;;;5037934;28;20478;-65
2023/10/21 11:33:29;;;;;;;3.97;1.20;;;17.40;19.70;;;;;;5040712;28;20480;-65
2023/10/21 11:35:59;;;;;;;3.93;1.37;;;17.50;19.70;;;;;;5047556;28;21019;-65
2023/10/21 11:38:28;;;;;;;5.20;1.80;;;17.60;19.50;;;;;;5043169;28;20756;-65
2023/10/21 11:40:55;;;;;;;4.80;1.63;;;17.60;19.20;;;;;;5047175;28;20478;-65
2023/10/21 11:43:25;;;;;;;4.20;1.37;;;17.60;18.90;;;;;;5045587;28;20469;-65
2023/10/21 11:45:55;;;;;;;3.77;1.07;;;17.60;18.50;;;;;;5048191;28;20494;-65
2023/10/21 11:48:24;;;;;;;3.60;1.10;;;17.50;18.10;;;;;;5048469;28;20876;-65
2023/10/21 11:50:50;;;;;;;3.40;0.97;;;17.50;18.20;;;;;;5050557;28;20461;-65
2023/10/21 11:53:20;;;;;;;5.20;2.30;;;17.50;18.40;;;;;;5049668;28;20488;-65
2023/10/21 11:56:52;;;;;;;5.10;1.37;;;17.60;18.40;;;;;;5052926;28;20586;-65
2023/10/21 12:08:00;;;;;;;7.40;3.37;;;18.10;17.20;;;;;;5081468;28;20708;-64
2023/10/21 12:16:05;;;;;;;5.90;1.90;;;17.70;16.30;;;;;;5088962;28;20474;-65
2023/10/21 12:21:39;;;;;;;5.97;2.57;;;17.50;16.10;;;;;;5074312;28;20451;-64
2023/10/21 12:35:52;;;;;;;8.27;3.93;;;16.90;16.90;;;;;;5011153;28;20570;-65
2023/10/21 12:38:23;;;;;;;9.03;6.07;;;16.80;17.30;;;;;;5064969;28;20453;-65
2023/10/21 12:41:15;;;;;;;7.80;3.77;;;16.70;18.00;;;;;;5063289;28;20481;-65
2023/10/21 12:43:45;;;;;;;7.70;4.80;;;16.60;18.40;;;;;;5059029;28;20481;-65
2023/10/21 12:46:17;;;;;;;6.83;2.73;;;16.50;19.00;;;;;;5070059;28;20469;-65
2023/10/21 12:48:45;;;;;;;5.00;2.00;;;16.40;19.40;;;;;;5064364;28;20506;-65
2023/10/21 12:51:15;;;;;;;6.77;2.00;;;16.30;19.70;;;;;;5064570;28;20540;-65
2023/10/21 12:53:43;;;;;;;8.80;5.70;;;16.30;21.00;;;;;;5060044;28;20461;-65
2023/10/21 12:56:09;;;;;;;9.33;5.40;;;16.20;20.70;;;;;;5055845;28;20479;-65
2023/10/21 12:58:36;;;;;;;8.60;3.77;;;16.20;20.90;;;;;;5061562;28;20457;-65
2023/10/21 13:01:05;;;;;;;6.33;2.53;;;16.10;21.30;;;;;;5057250;28;20481;-65
2023/10/21 13:03:31;;;;;;;10.10;3.33;;;16.10;21.60;;;;;;5056349;28;20481;-65
2023/10/21 13:05:58;;;;;;;9.73;3.37;;;16.10;22.20;;;;;;5062781;28;20481;-67
2023/10/21 13:08:25;;;;;;;7.27;2.97;;;16.10;22.90;;;;;;5062698;28;20461;-65
2023/10/21 13:10:56;;;;;;;8.10;5.17;;;16.00;23.30;;;;;;5063713;28;20457;-65
2023/10/21 13:13:23;;;;;;;6.87;3.83;;;16.00;23.30;;;;;;5059166;28;20468;-65
2023/10/21 13:15:49;;;;;;;6.47;2.60;;;16.00;23.50;;;;;;5049365;28;20481;-65
2023/10/21 13:18:18;;;;;;;7.30;2.40;;;16.00;23.70;;;;;;5052783;28;20485;-65
2023/10/21 13:20:46;;;;;;;6.27;2.40;;;16.00;23.40;;;;;;5059662;28;20449;-65